createdAt,value
2023-02-25T00:00:35.714Z,6.90
2023-02-25T00:03:02.746Z,7.20
2023-02-25T00:05:31.906Z,7.30
2023-02-25T00:07:59.620Z,7.30
2023-02-25T00:10:27.049Z,7.30
2023-02-25T00:12:53.990Z,7.50
2023-02-25T00:15:26.465Z,7.60
2023-02-25T00:17:53.713Z,7.60
2023-02-25T00:20:22.445Z,7.40
2023-02-25T00:22:50.170Z,7.30
2023-02-25T00:25:17.213Z,7.20
2023-02-25T00:27:44.670Z,7.20
2023-02-25T00:30:12.833Z,7.00
2023-02-25T00:32:40.371Z,7.00
2023-02-25T00:35:12.903Z,7.10
2023-02-25T00:37:40.142Z,7.00
2023-02-25T00:40:15.369Z,7.00
2023-02-25T00:42:42.831Z,6.70
2023-02-25T00:45:11.656Z,6.70
2023-02-25T00:47:39.315Z,6.70
2023-02-25T00:50:09.780Z,6.80
2023-02-25T00:52:37.877Z,6.70
2023-02-25T00:55:07.489Z,6.50
2023-02-25T00:57:34.553Z,6.50
2023-02-25T01:00:01.706Z,6.50
2023-02-25T01:02:29.520Z,6.50
2023-02-25T01:04:56.340Z,6.50
2023-02-25T01:07:23.485Z,6.40
2023-02-25T01:09:50.538Z,6.40
2023-02-25T01:12:17.554Z,6.20
2023-02-25T01:14:44.909Z,6.30
2023-02-25T01:17:11.886Z,6.40
2023-02-25T01:19:39.545Z,6.40
2023-02-25T01:22:07.688Z,6.50
2023-02-25T01:24:34.939Z,6.40
2023-02-25T01:27:04.151Z,6.30
2023-02-25T01:29:42.198Z,6.30
2023-02-25T01:32:12.470Z,6.30
2023-02-25T01:34:40.207Z,6.40
2023-02-25T01:37:07.478Z,6.50
2023-02-25T01:39:34.586Z,6.60
2023-02-25T01:42:04.742Z,6.80
2023-02-25T01:44:38.174Z,7.00
2023-02-25T01:47:05.437Z,7.10
2023-02-25T01:49:46.403Z,6.90
2023-02-25T01:52:21.527Z,6.90
2023-02-25T01:54:55.578Z,7.00
2023-02-25T01:57:24.567Z,6.90
2023-02-25T01:59:53.587Z,6.90
2023-02-25T02:02:23.466Z,6.90
2023-02-25T02:04:53.288Z,7.00
2023-02-25T02:07:22.226Z,7.00
2023-02-25T02:09:58.850Z,6.90
2023-02-25T02:12:28.872Z,6.80
2023-02-25T02:14:58.555Z,6.90
2023-02-25T02:17:31.962Z,7.00
2023-02-25T02:20:11.472Z,6.90
2023-02-25T02:22:48.579Z,6.80
2023-02-25T02:25:24.318Z,6.80
2023-02-25T02:28:15.626Z,6.80
2023-02-25T02:31:10.718Z,6.80
2023-02-25T02:34:11.867Z,6.80
2023-02-25T02:37:06.730Z,6.60
2023-02-25T02:40:09.654Z,6.60
2023-02-25T02:43:18.895Z,6.50
2023-02-25T02:46:01.351Z,6.50
2023-02-25T02:48:31.315Z,6.40
2023-02-25T02:51:02.323Z,6.40
2023-02-25T02:53:35.806Z,6.50
2023-02-25T02:56:09.537Z,6.50
2023-02-25T02:58:48.325Z,6.50
2023-02-25T03:01:24.301Z,6.40
2023-02-25T03:04:03.174Z,6.20
2023-02-25T03:06:44.677Z,6.10
2023-02-25T03:09:18.511Z,5.90
2023-02-25T03:11:45.951Z,5.70
2023-02-25T03:14:14.391Z,5.60
2023-02-25T03:16:51.765Z,5.50
2023-02-25T03:19:25.537Z,5.50
2023-02-25T03:22:02.927Z,5.40
2023-02-25T03:24:35.925Z,5.50
2023-02-25T03:27:25.290Z,5.40
2023-02-25T03:29:53.307Z,5.50
2023-02-25T03:32:21.987Z,5.50
2023-02-25T03:34:51.487Z,5.60
2023-02-25T03:37:24.180Z,5.60
2023-02-25T03:39:56.025Z,5.70
2023-02-25T03:42:30.099Z,5.80
2023-02-25T03:45:01.124Z,5.90
2023-02-25T03:47:30.105Z,6.00
2023-02-25T03:50:00.364Z,6.30
2023-02-25T03:52:28.448Z,6.20
2023-02-25T03:54:57.537Z,6.20
2023-02-25T03:57:33.897Z,6.20
2023-02-25T04:00:00.865Z,6.30
2023-02-25T04:02:32.982Z,6.30
2023-02-25T04:05:00.179Z,6.20
2023-02-25T04:07:27.289Z,6.20
2023-02-25T04:09:54.269Z,6.30
2023-02-25T04:12:21.252Z,6.30
2023-02-25T04:14:48.334Z,6.30
2023-02-25T04:17:15.527Z,6.40
2023-02-25T04:19:42.485Z,6.50
2023-02-25T04:22:12.105Z,6.40
2023-02-25T04:24:38.982Z,6.50
2023-02-25T04:27:05.921Z,6.20
2023-02-25T04:29:32.983Z,6.30
2023-02-25T04:32:00.024Z,6.30
2023-02-25T04:34:27.175Z,6.30
2023-02-25T04:36:54.104Z,6.40
2023-02-25T04:39:24.379Z,6.40
2023-02-25T04:41:51.477Z,6.50
2023-02-25T04:44:18.447Z,6.50
2023-02-25T04:46:54.614Z,6.50
2023-02-25T04:49:23.090Z,6.60
2023-02-25T04:51:51.554Z,6.60
2023-02-25T04:54:20.230Z,6.70
2023-02-25T04:56:48.557Z,6.70
2023-02-25T04:59:16.177Z,6.80
2023-02-25T05:01:43.681Z,6.80
2023-02-25T05:04:10.871Z,6.90
2023-02-25T05:06:39.229Z,6.90
2023-02-25T05:09:08.193Z,6.90
2023-02-25T05:11:36.503Z,6.80
2023-02-25T05:14:03.598Z,6.90
2023-02-25T05:16:30.583Z,6.80
2023-02-25T05:18:58.144Z,6.80
2023-02-25T05:21:26.921Z,7.00
2023-02-25T05:23:54.460Z,7.10
2023-02-25T05:26:24.292Z,7.10
2023-02-25T05:28:52.514Z,7.10
2023-02-25T05:31:20.659Z,7.20
2023-02-25T05:33:47.665Z,7.00
2023-02-25T05:36:15.951Z,7.10
2023-02-25T05:38:44.199Z,7.00
2023-02-25T05:41:12.021Z,6.90
2023-02-25T05:43:40.403Z,6.90
2023-02-25T05:46:12.011Z,6.80
2023-02-25T05:48:40.587Z,6.80
2023-02-25T05:51:11.735Z,6.90
2023-02-25T05:53:39.524Z,6.90
2023-02-25T05:56:08.686Z,6.80
2023-02-25T05:58:35.608Z,6.90
2023-02-25T06:01:11.523Z,6.90
2023-02-25T06:03:39.266Z,6.90
2023-02-25T06:06:07.279Z,6.90
2023-02-25T06:08:34.975Z,6.80
2023-02-25T06:11:07.269Z,6.70
2023-02-25T06:13:35.301Z,6.70
2023-02-25T06:16:06.315Z,6.70
2023-02-25T06:18:36.836Z,6.90
2023-02-25T06:21:10.057Z,6.90
2023-02-25T06:23:40.078Z,6.70
2023-02-25T06:26:08.250Z,6.60
2023-02-25T06:28:36.395Z,6.60
2023-02-25T06:31:07.007Z,6.50
2023-02-25T06:33:33.895Z,6.40
2023-02-25T06:36:00.709Z,6.30
2023-02-25T06:38:27.740Z,6.20
2023-02-25T06:40:54.881Z,6.20
2023-02-25T06:43:21.761Z,6.20
2023-02-25T06:45:48.786Z,6.20
2023-02-25T06:48:15.646Z,6.30
2023-02-25T06:50:43.041Z,6.60
2023-02-25T06:53:10.170Z,6.60
2023-02-25T06:55:39.459Z,6.90
2023-02-25T06:58:06.624Z,6.90
2023-02-25T07:00:34.108Z,6.80
2023-02-25T07:03:03.192Z,6.80
2023-02-25T07:05:30.280Z,6.80
2023-02-25T07:07:57.725Z,6.70
2023-02-25T07:10:24.785Z,6.70
2023-02-25T07:12:53.310Z,6.70
2023-02-25T07:15:21.759Z,6.80
2023-02-25T07:17:52.209Z,6.80
2023-02-25T07:20:19.503Z,6.80
2023-02-25T07:22:46.670Z,6.80
2023-02-25T07:25:13.877Z,6.80
2023-02-25T07:27:44.496Z,6.90
2023-02-25T07:30:15.399Z,6.90
2023-02-25T07:32:43.149Z,7.00
2023-02-25T07:35:10.605Z,7.10
2023-02-25T07:37:38.114Z,7.20
2023-02-25T07:40:13.044Z,7.10
2023-02-25T07:42:43.511Z,7.00
2023-02-25T07:45:11.858Z,7.10
2023-02-25T07:47:40.230Z,7.10
2023-02-25T07:50:11.583Z,7.20
2023-02-25T07:52:42.261Z,7.40
2023-02-25T07:55:09.736Z,7.40
2023-02-25T07:57:37.049Z,7.50
2023-02-25T08:00:10.424Z,7.50
2023-02-25T08:02:38.379Z,7.50
2023-02-25T08:05:07.187Z,7.50
2023-02-25T08:07:34.093Z,7.50
2023-02-25T08:10:01.106Z,7.50
2023-02-25T08:12:28.160Z,7.50
2023-02-25T08:14:55.685Z,7.40
2023-02-25T08:17:22.870Z,7.40
2023-02-25T08:19:50.138Z,7.40
2023-02-25T08:22:17.043Z,7.40
2023-02-25T08:24:43.983Z,7.50
2023-02-25T08:27:10.911Z,7.60
2023-02-25T08:29:38.035Z,7.70
2023-02-25T08:32:08.758Z,7.70
2023-02-25T08:34:36.102Z,7.80
2023-02-25T08:37:03.052Z,8.00
2023-02-25T08:39:31.139Z,8.50
2023-02-25T08:41:58.062Z,8.80
2023-02-25T08:44:25.066Z,9.00
2023-02-25T08:49:33.476Z,9.10
2023-02-25T08:52:00.975Z,9.10
2023-02-25T08:57:00.397Z,9.40
2023-02-25T08:59:27.405Z,9.60
2023-02-25T09:04:25.648Z,9.80
2023-02-25T09:06:54.190Z,10.20
2023-02-25T09:09:21.953Z,10.30
2023-02-25T09:11:49.532Z,10.30
2023-02-25T09:14:17.610Z,10.30
2023-02-25T09:16:44.929Z,10.10
2023-02-25T09:19:12.738Z,9.90
2023-02-25T09:21:42.791Z,9.80
2023-02-25T09:24:10.129Z,9.80
2023-02-25T09:26:37.270Z,9.90
2023-02-25T09:29:06.843Z,9.80
2023-02-25T09:31:36.985Z,9.80
2023-02-25T09:34:09.063Z,10.00
2023-02-25T09:36:36.553Z,10.10
2023-02-25T09:39:06.977Z,10.10
2023-02-25T09:41:50.912Z,10.30
2023-02-25T09:44:34.141Z,10.80
2023-02-25T09:47:17.131Z,10.90
2023-02-25T09:50:00.473Z,11.10
2023-02-25T09:52:46.895Z,11.00
2023-02-25T09:55:31.943Z,11.00
2023-02-25T09:58:24.340Z,11.00
2023-02-25T10:01:04.576Z,11.00
2023-02-25T10:03:49.015Z,11.20
2023-02-25T10:06:16.479Z,11.50
2023-02-25T10:09:01.094Z,11.70
2023-02-25T10:11:41.799Z,12.10
2023-02-25T10:14:28.107Z,12.30
2023-02-25T10:17:03.677Z,12.50
2023-02-25T10:20:21.904Z,12.60
2023-02-25T10:23:15.705Z,12.90
2023-02-25T10:26:13.380Z,12.70
2023-02-25T10:28:42.989Z,12.50
2023-02-25T10:31:18.921Z,12.00
2023-02-25T10:33:48.932Z,11.50
2023-02-25T10:36:20.181Z,10.70
2023-02-25T10:38:50.074Z,10.70
2023-02-25T10:41:18.447Z,10.30
2023-02-25T10:43:47.714Z,10.50
2023-02-25T10:46:26.175Z,11.30
2023-02-25T10:48:59.393Z,11.60
2023-02-25T10:51:28.514Z,11.90
2023-02-25T10:53:58.452Z,12.40
2023-02-25T10:56:28.381Z,12.80
2023-02-25T10:59:07.614Z,13.60
2023-02-25T11:01:43.659Z,13.80
2023-02-25T11:04:14.174Z,13.70
2023-02-25T11:06:43.360Z,13.70
2023-02-25T11:09:19.663Z,13.90
2023-02-25T11:11:58.457Z,13.80
2023-02-25T11:14:31.801Z,13.60
2023-02-25T11:17:22.890Z,13.00
2023-02-25T11:20:00.293Z,12.70
2023-02-25T11:22:37.473Z,12.80
2023-02-25T11:25:17.963Z,12.70
2023-02-25T11:27:54.130Z,12.70
2023-02-25T11:30:29.608Z,12.20
2023-02-25T11:32:58.196Z,12.00
2023-02-25T11:35:30.585Z,11.70
2023-02-25T11:37:59.741Z,11.30
2023-02-25T11:40:33.078Z,11.20
2023-02-25T11:43:05.875Z,11.10
2023-02-25T11:45:49.336Z,11.10
2023-02-25T11:48:46.326Z,11.30
2023-02-25T11:51:31.772Z,11.80
2023-02-25T11:54:23.443Z,12.50
2023-02-25T11:56:59.496Z,13.00
2023-02-25T11:59:40.418Z,13.40
2023-02-25T12:02:19.108Z,13.70
2023-02-25T12:04:45.892Z,13.90
2023-02-25T12:07:26.478Z,14.20
2023-02-25T12:10:23.639Z,14.40
2023-02-25T12:13:24.068Z,13.90
2023-02-25T12:16:18.063Z,13.20
2023-02-25T12:19:19.663Z,12.90
2023-02-25T12:21:49.987Z,12.90
2023-02-25T12:24:51.098Z,13.30
2023-02-25T12:27:20.675Z,13.60
2023-02-25T12:30:07.073Z,13.70
2023-02-25T12:32:57.883Z,14.00
2023-02-25T12:35:51.601Z,14.40
2023-02-25T12:38:42.788Z,14.90
2023-02-25T12:41:20.480Z,15.40
2023-02-25T12:43:55.914Z,15.20
2023-02-25T12:46:41.441Z,15.20
2023-02-25T12:49:35.612Z,14.60
2023-02-25T12:52:27.475Z,14.20
2023-02-25T12:55:15.420Z,14.30
2023-02-25T12:57:57.445Z,13.90
2023-02-25T13:01:01.460Z,13.70
2023-02-25T13:04:21.590Z,13.50
2023-02-25T13:07:06.036Z,13.30
2023-02-25T13:09:51.645Z,13.50
2023-02-25T13:12:37.007Z,13.70
2023-02-25T13:15:17.330Z,14.20
2023-02-25T13:18:00.434Z,15.00
2023-02-25T13:20:48.681Z,15.60
2023-02-25T13:23:39.857Z,15.90
2023-02-25T13:26:27.400Z,16.00
2023-02-25T13:29:12.961Z,16.10
2023-02-25T13:31:46.186Z,16.20
2023-02-25T13:34:43.829Z,16.20
2023-02-25T13:37:39.992Z,16.60
2023-02-25T13:40:12.888Z,17.00
2023-02-25T13:43:21.720Z,17.20
2023-02-25T13:46:29.185Z,17.40
2023-02-25T13:49:02.040Z,17.40
2023-02-25T13:52:01.076Z,16.50
2023-02-25T13:54:53.167Z,15.60
2023-02-25T13:57:50.474Z,14.80
2023-02-25T14:00:38.079Z,14.20
2023-02-25T14:03:48.147Z,14.00
2023-02-25T14:06:48.044Z,13.90
2023-02-25T14:09:48.560Z,13.50
2023-02-25T14:12:58.562Z,13.90
2023-02-25T14:15:48.207Z,14.50
2023-02-25T14:18:48.974Z,14.80
2023-02-25T14:21:34.537Z,15.20
2023-02-25T14:24:20.422Z,15.30
2023-02-25T14:27:10.750Z,15.50
2023-02-25T14:29:40.443Z,15.10
2023-02-25T14:32:10.344Z,15.10
2023-02-25T14:35:19.367Z,14.80
2023-02-25T14:38:08.093Z,14.80
2023-02-25T14:41:01.943Z,14.60
2023-02-25T14:43:36.069Z,14.70
2023-02-25T14:46:36.726Z,14.50
2023-02-25T14:49:35.038Z,14.10
2023-02-25T14:52:27.797Z,13.20
2023-02-25T14:55:14.125Z,13.30
2023-02-25T14:57:58.534Z,13.50
2023-02-25T15:00:33.774Z,13.70
2023-02-25T15:03:22.825Z,13.80
2023-02-25T15:06:03.652Z,13.80
2023-02-25T15:08:45.530Z,13.30
2023-02-25T15:11:36.354Z,13.20
2023-02-25T15:14:11.362Z,13.50
2023-02-25T15:16:56.285Z,13.50
2023-02-25T15:19:45.753Z,14.00
2023-02-25T15:22:22.983Z,14.00
2023-02-25T15:24:52.141Z,13.80
2023-02-25T15:27:33.583Z,13.30
2023-02-25T15:30:12.410Z,13.10
2023-02-25T15:33:42.933Z,12.30
2023-02-25T15:36:15.809Z,11.70
2023-02-25T15:38:52.518Z,11.50
2023-02-25T15:41:28.137Z,11.20
2023-02-25T15:44:00.081Z,10.90
2023-02-25T15:46:35.932Z,10.80
2023-02-25T15:49:10.282Z,10.90
2023-02-25T15:51:44.924Z,10.80
2023-02-25T15:54:32.395Z,10.80
2023-02-25T15:57:06.829Z,10.60
2023-02-25T15:59:47.479Z,10.80
2023-02-25T16:02:29.183Z,10.60
2023-02-25T16:05:17.698Z,10.50
2023-02-25T16:08:15.242Z,10.50
2023-02-25T16:10:46.507Z,10.40
2023-02-25T16:13:17.372Z,10.40
2023-02-25T16:15:48.851Z,10.30
2023-02-25T16:18:50.249Z,10.30
2023-02-25T16:21:46.508Z,10.20
2023-02-25T16:24:14.544Z,10.10
2023-02-25T16:26:45.130Z,10.00
2023-02-25T16:29:29.730Z,9.70
2023-02-25T16:32:26.104Z,9.70
2023-02-25T16:35:09.475Z,9.80
2023-02-25T16:38:17.944Z,9.50
2023-02-25T16:40:45.961Z,9.40
2023-02-25T16:43:16.881Z,9.20
2023-02-25T16:45:55.481Z,9.20
2023-02-25T16:48:50.122Z,9.30
2023-02-25T16:51:41.529Z,9.30
2023-02-25T16:54:22.482Z,9.40
2023-02-25T16:56:54.707Z,9.50
2023-02-25T16:59:23.017Z,9.50
2023-02-25T17:02:01.295Z,9.30
2023-02-25T17:04:35.084Z,9.30
2023-02-25T17:07:23.152Z,9.20
2023-02-25T17:10:02.070Z,9.40
2023-02-25T17:12:32.283Z,9.30
2023-02-25T17:15:02.183Z,9.50
2023-02-25T17:17:35.768Z,9.40
2023-02-25T17:20:06.740Z,9.40
2023-02-25T17:22:35.306Z,9.60
2023-02-25T17:25:04.579Z,9.50
2023-02-25T17:27:31.938Z,9.40
2023-02-25T17:29:58.920Z,9.50
2023-02-25T17:32:29.634Z,9.30
2023-02-25T17:35:06.185Z,9.50
2023-02-25T17:37:35.493Z,9.30
2023-02-25T17:40:08.253Z,9.30
2023-02-25T17:42:38.258Z,9.10
2023-02-25T17:45:27.413Z,9.10
2023-02-25T17:47:54.554Z,9.00
2023-02-25T17:50:31.711Z,8.90
2023-02-25T17:53:01.582Z,9.00
2023-02-25T17:55:35.129Z,9.00
2023-02-25T17:58:03.788Z,8.90
2023-02-25T18:00:37.869Z,8.90
2023-02-25T18:03:20.286Z,8.90
2023-02-25T18:05:58.943Z,9.00
2023-02-25T18:08:29.211Z,8.80
2023-02-25T18:11:36.511Z,8.70
2023-02-25T18:14:32.165Z,8.50
2023-02-25T18:17:01.663Z,8.60
2023-02-25T18:19:39.977Z,8.40
2023-02-25T18:22:21.726Z,8.50
2023-02-25T18:24:55.508Z,8.60
2023-02-25T18:27:32.968Z,8.60
2023-02-25T18:30:11.563Z,8.60
2023-02-25T18:32:39.374Z,8.40
2023-02-25T18:35:06.810Z,8.50
2023-02-25T18:37:34.494Z,8.40
2023-02-25T18:40:01.550Z,8.40
2023-02-25T18:42:28.396Z,8.30
2023-02-25T18:44:57.267Z,8.30
2023-02-25T18:47:29.693Z,8.30
2023-02-25T18:49:56.757Z,8.10
2023-02-25T18:52:25.448Z,8.10
2023-02-25T18:54:52.455Z,7.90
2023-02-25T18:57:24.904Z,7.70
2023-02-25T18:59:53.228Z,7.80
2023-02-25T19:02:45.282Z,7.60
2023-02-25T19:05:15.836Z,7.60
2023-02-25T19:07:44.489Z,7.40
2023-02-25T19:10:16.971Z,7.30
2023-02-25T19:12:45.207Z,7.50
2023-02-25T19:15:15.810Z,7.40
2023-02-25T19:17:43.400Z,7.40
2023-02-25T19:20:13.519Z,7.20
2023-02-25T19:22:48.886Z,7.20
2023-02-25T19:25:31.546Z,7.20
2023-02-25T19:28:02.748Z,7.30
2023-02-25T19:30:34.078Z,7.40
2023-02-25T19:33:04.646Z,7.20
2023-02-25T19:35:34.265Z,7.00
2023-02-25T19:38:01.690Z,7.10
2023-02-25T19:40:29.501Z,7.00
2023-02-25T19:42:57.049Z,6.90
2023-02-25T19:45:25.042Z,6.90
2023-02-25T19:47:54.904Z,6.80
2023-02-25T19:50:25.020Z,6.80
2023-02-25T19:52:53.641Z,6.90
2023-02-25T19:55:21.200Z,6.80
2023-02-25T19:57:51.019Z,6.70
2023-02-25T20:00:24.438Z,6.90
2023-02-25T20:02:53.232Z,6.70
2023-02-25T20:05:22.316Z,6.50
2023-02-25T20:07:49.594Z,6.60
2023-02-25T20:10:17.450Z,6.60
2023-02-25T20:12:46.024Z,6.50
2023-02-25T20:15:14.593Z,6.60
2023-02-25T20:17:43.824Z,6.60
2023-02-25T20:20:13.185Z,6.60
2023-02-25T20:22:42.896Z,6.50
2023-02-25T20:25:11.108Z,6.40
2023-02-25T20:27:39.815Z,6.40
2023-02-25T20:30:07.755Z,6.40
2023-02-25T20:32:37.029Z,6.50
2023-02-25T20:35:04.360Z,6.50
2023-02-25T20:37:37.340Z,6.50
2023-02-25T20:40:10.120Z,6.40
2023-02-25T20:42:39.303Z,6.40
2023-02-25T20:45:07.195Z,6.40
2023-02-25T20:47:36.499Z,6.30
2023-02-25T20:50:06.057Z,6.40
2023-02-25T20:52:35.306Z,6.40
2023-02-25T20:55:02.117Z,6.40
2023-02-25T20:57:29.165Z,6.40
2023-02-25T20:59:56.054Z,6.30
2023-02-25T21:02:23.180Z,6.30
2023-02-25T21:04:50.654Z,6.20
2023-02-25T21:07:20.316Z,6.10
2023-02-25T21:09:47.807Z,6.10
2023-02-25T21:12:14.796Z,6.00
2023-02-25T21:14:41.876Z,6.20
2023-02-25T21:17:13.727Z,6.10
2023-02-25T21:19:40.986Z,6.10
2023-02-25T21:22:10.381Z,5.90
2023-02-25T21:24:39.361Z,6.00
2023-02-25T21:27:06.652Z,6.00
2023-02-25T21:29:33.743Z,5.90
2023-02-25T21:32:00.678Z,5.90
2023-02-25T21:34:28.065Z,6.00
2023-02-25T21:37:00.354Z,6.10
2023-02-25T21:39:27.279Z,6.00
2023-02-25T21:41:54.281Z,5.80
2023-02-25T21:44:21.520Z,5.70
2023-02-25T21:46:48.573Z,5.60
2023-02-25T21:49:15.660Z,5.50
2023-02-25T21:51:44.457Z,5.60
2023-02-25T21:54:12.145Z,5.40
2023-02-25T21:56:40.912Z,5.70
2023-02-25T21:59:09.794Z,5.60
2023-02-25T22:01:39.221Z,5.70
2023-02-25T22:04:07.615Z,5.70
2023-02-25T22:06:34.783Z,5.80
2023-02-25T22:09:01.988Z,5.60
2023-02-25T22:11:32.894Z,5.70
2023-02-25T22:14:02.051Z,5.60
2023-02-25T22:16:29.558Z,5.60
2023-02-25T22:18:57.177Z,5.80
2023-02-25T22:21:33.003Z,5.70
2023-02-25T22:24:03.089Z,5.60
2023-02-25T22:26:33.690Z,5.60
2023-02-25T22:29:04.701Z,5.40
2023-02-25T22:31:32.860Z,5.20
2023-02-25T22:34:00.840Z,5.20
2023-02-25T22:36:28.210Z,5.30
2023-02-25T22:38:56.519Z,5.10
2023-02-25T22:41:31.104Z,5.10
2023-02-25T22:43:59.147Z,5.20
2023-02-25T22:46:36.419Z,5.10
2023-02-25T22:49:04.755Z,5.00
2023-02-25T22:51:34.692Z,4.80
2023-02-25T22:54:01.862Z,4.80
2023-02-25T22:56:28.867Z,4.70
2023-02-25T22:58:55.941Z,4.80
2023-02-25T23:01:26.376Z,4.70
2023-02-25T23:03:57.027Z,4.60
2023-02-25T23:06:37.511Z,4.50
2023-02-25T23:09:09.607Z,4.40
2023-02-25T23:11:36.514Z,4.40
2023-02-25T23:14:04.226Z,4.50
2023-02-25T23:16:34.515Z,4.50
2023-02-25T23:19:04.681Z,4.40
2023-02-25T23:21:33.732Z,4.50
2023-02-25T23:24:04.143Z,4.50
2023-02-25T23:26:40.255Z,4.50
2023-02-25T23:29:08.792Z,4.50
2023-02-25T23:31:38.991Z,4.60
2023-02-25T23:34:12.322Z,4.60
2023-02-25T23:36:41.199Z,4.50
2023-02-25T23:39:10.544Z,4.60
2023-02-25T23:41:40.225Z,4.50
2023-02-25T23:44:09.176Z,4.40
2023-02-25T23:46:36.483Z,4.40
2023-02-25T23:49:07.134Z,4.40
2023-02-25T23:51:34.796Z,4.50
2023-02-25T23:54:05.192Z,4.50
2023-02-25T23:56:32.990Z,4.50
2023-02-25T23:59:00.294Z,4.50
